createdAt,value
2022-11-22T00:00:14.216Z,99033.19
2022-11-22T00:02:40.660Z,99034.03
2022-11-22T00:05:07.644Z,99031.50
2022-11-22T00:07:34.267Z,99034.19
2022-11-22T00:10:00.867Z,99037.56
2022-11-22T00:12:27.340Z,99036.56
2022-11-22T00:14:56.823Z,99036.56
2022-11-22T00:17:23.696Z,99040.94
2022-11-22T00:19:50.192Z,99039.78
2022-11-22T00:22:16.716Z,99047.84
2022-11-22T00:24:44.312Z,99040.47
2022-11-22T00:27:10.889Z,99036.09
2022-11-22T00:29:37.354Z,99039.63
2022-11-22T00:32:04.317Z,99043.16
2022-11-22T00:34:30.825Z,99045.69
2022-11-22T00:36:57.336Z,99038.31
2022-11-22T00:39:23.802Z,99043.53
2022-11-22T00:41:50.511Z,99048.59
2022-11-22T00:44:16.974Z,99046.06
2022-11-22T00:46:43.435Z,99042.09
2022-11-22T00:49:10.009Z,99050.13
2022-11-22T00:51:36.544Z,99043.63
2022-11-22T00:54:03.148Z,99047.84
2022-11-22T00:56:29.740Z,99049.53
2022-11-22T00:58:56.191Z,99049.22
2022-11-22T01:01:22.735Z,99046.38
2022-11-22T01:03:49.300Z,99049.22
2022-11-22T01:06:15.788Z,99050.91
2022-11-22T01:08:42.520Z,99054.28
2022-11-22T01:11:09.179Z,99050.44
2022-11-22T01:13:35.805Z,99045.06
2022-11-22T01:16:04.729Z,99045.06
2022-11-22T01:18:32.247Z,99044.22
2022-11-22T01:20:59.667Z,99043.06
2022-11-22T01:23:26.611Z,99037.69
2022-11-22T01:25:53.164Z,99041.91
2022-11-22T01:28:19.998Z,99043.59
2022-11-22T01:30:51.187Z,99038.06
2022-11-22T01:33:18.287Z,99037.53
2022-11-22T01:35:45.313Z,99039.53
2022-11-22T01:38:12.054Z,99038.00
2022-11-22T01:40:38.777Z,99038.16
2022-11-22T01:43:16.138Z,99044.22
2022-11-22T01:45:45.945Z,99054.81
2022-11-22T01:48:12.383Z,99055.66
2022-11-22T01:50:43.037Z,99060.50
2022-11-22T01:53:15.032Z,99062.47
2022-11-22T01:55:42.279Z,99062.78
2022-11-22T01:58:10.498Z,99064.25
2022-11-22T02:00:38.845Z,99072.78
2022-11-22T02:03:09.583Z,99064.34
2022-11-22T02:05:36.302Z,99063.50
2022-11-22T02:08:15.469Z,99070.84
2022-11-22T02:10:49.231Z,99071.47
2022-11-22T02:13:18.045Z,99074.31
2022-11-22T02:15:44.527Z,99075.47
2022-11-22T02:18:11.218Z,99077.44
2022-11-22T02:20:39.394Z,99083.97
2022-11-22T02:23:10.714Z,99076.75
2022-11-22T02:25:37.190Z,99079.44
2022-11-22T02:28:04.872Z,99082.44
2022-11-22T02:30:31.376Z,99074.69
2022-11-22T02:32:58.088Z,99070.16
2022-11-22T02:35:27.130Z,99068.63
2022-11-22T02:38:09.316Z,99084.03
2022-11-22T02:40:53.163Z,99090.94
2022-11-22T02:43:26.943Z,99079.06
2022-11-22T02:45:53.912Z,99079.91
2022-11-22T02:48:20.711Z,99082.72
2022-11-22T02:50:47.256Z,99080.91
2022-11-22T02:53:14.267Z,99086.41
2022-11-22T02:55:40.996Z,99092.78
2022-11-22T02:58:07.714Z,99095.63
2022-11-22T03:00:36.594Z,99095.63
2022-11-22T03:03:03.188Z,99094.78
2022-11-22T03:05:29.762Z,99101.97
2022-11-22T03:07:56.267Z,99096.59
2022-11-22T03:10:22.875Z,99098.59
2022-11-22T03:12:49.355Z,99093.38
2022-11-22T03:15:16.001Z,99099.06
2022-11-22T03:17:42.536Z,99099.91
2022-11-22T03:20:09.489Z,99105.25
2022-11-22T03:22:36.202Z,99104.56
2022-11-22T03:25:02.754Z,99103.00
2022-11-22T03:27:29.387Z,99109.38
2022-11-22T03:29:59.099Z,99106.69
2022-11-22T03:32:25.601Z,99112.50
2022-11-22T03:34:52.104Z,99111.81
2022-11-22T03:37:18.669Z,99115.47
2022-11-22T03:39:45.188Z,99115.47
2022-11-22T03:42:13.620Z,99123.53
2022-11-22T03:44:43.293Z,99125.38
2022-11-22T03:47:09.786Z,99130.88
2022-11-22T03:49:36.296Z,99126.81
2022-11-22T03:52:02.861Z,99126.25
2022-11-22T03:54:29.313Z,99132.72
2022-11-22T03:56:55.759Z,99125.13
2022-11-22T03:59:22.279Z,99129.66
2022-11-22T04:01:48.900Z,99134.31
2022-11-22T04:04:15.464Z,99137.16
2022-11-22T04:06:41.946Z,99131.78
2022-11-22T04:09:08.755Z,99141.66
2022-11-22T04:11:35.383Z,99141.66
2022-11-22T04:14:20.354Z,99151.56
2022-11-22T04:16:46.836Z,99142.09
2022-11-22T04:19:13.371Z,99149.75
2022-11-22T04:21:39.865Z,99158.78
2022-11-22T04:24:27.441Z,99157.94
2022-11-22T04:26:54.804Z,99149.19
2022-11-22T04:29:21.856Z,99154.72
2022-11-22T04:32:07.986Z,99155.16
2022-11-22T04:34:34.755Z,99156.56
2022-11-22T04:37:02.095Z,99160.53
2022-11-22T04:39:28.979Z,99155.75
2022-11-22T04:42:15.098Z,99150.69
2022-11-22T04:44:42.349Z,99163.38
2022-11-22T04:47:10.516Z,99164.22
2022-11-22T04:49:37.015Z,99173.25
2022-11-22T04:52:23.363Z,99170.13
2022-11-22T04:54:49.945Z,99180.31
2022-11-22T04:57:16.716Z,99180.59
2022-11-22T04:59:43.266Z,99183.56
2022-11-22T05:02:09.804Z,99177.78
2022-11-22T05:04:36.296Z,99169.88
2022-11-22T05:07:02.927Z,99163.13
2022-11-22T05:09:29.553Z,99170.47
2022-11-22T05:11:56.259Z,99165.09
2022-11-22T05:14:22.712Z,99168.06
2022-11-22T05:16:49.219Z,99168.19
2022-11-22T05:19:15.672Z,99175.53
2022-11-22T05:21:42.163Z,99184.28
2022-11-22T05:24:08.960Z,99187.25
2022-11-22T05:26:36.528Z,99175.97
2022-11-22T05:29:08.572Z,99183.44
2022-11-22T05:31:37.178Z,99181.03
2022-11-22T05:34:05.088Z,99182.72
2022-11-22T05:36:33.513Z,99181.03
2022-11-22T05:39:00.070Z,99186.53
2022-11-22T05:41:26.671Z,99184.84
2022-11-22T05:43:56.100Z,99187.66
2022-11-22T05:46:26.432Z,99184.41
2022-11-22T05:48:54.797Z,99182.72
2022-11-22T05:51:24.252Z,99186.41
2022-11-22T05:53:52.529Z,99179.50
2022-11-22T05:56:21.507Z,99165.81
2022-11-22T05:58:48.612Z,99173.00
2022-11-22T06:01:18.372Z,99171.31
2022-11-22T06:03:45.778Z,99174.13
2022-11-22T06:06:12.996Z,99179.75
2022-11-22T06:08:41.792Z,99185.25
2022-11-22T06:11:16.219Z,99181.88
2022-11-22T06:13:44.500Z,99182.84
2022-11-22T06:16:12.009Z,99191.28
2022-11-22T06:18:38.877Z,99193.25
2022-11-22T06:21:07.791Z,99196.91
2022-11-22T06:23:34.415Z,99202.41
2022-11-22T06:26:06.905Z,99198.88
2022-11-22T06:28:35.431Z,99201.69
2022-11-22T06:31:07.152Z,99198.16
2022-11-22T06:33:34.194Z,99191.25
2022-11-22T06:36:11.032Z,99186.19
2022-11-22T06:38:38.289Z,99188.16
2022-11-22T06:41:07.315Z,99198.16
2022-11-22T06:43:35.186Z,99200.81
2022-11-22T06:46:03.856Z,99197.16
2022-11-22T06:48:32.382Z,99192.66
2022-11-22T06:51:01.981Z,99196.19
2022-11-22T06:53:46.828Z,99197.31
2022-11-22T06:56:25.067Z,99205.59
2022-11-22T06:58:52.731Z,99212.78
2022-11-22T07:01:24.995Z,99213.78
2022-11-22T07:03:56.003Z,99209.53
2022-11-22T07:06:22.480Z,99223.75
2022-11-22T07:08:49.015Z,99225.72
2022-11-22T07:11:18.161Z,99226.72
2022-11-22T07:13:45.404Z,99229.53
2022-11-22T07:16:14.480Z,99228.81
2022-11-22T07:18:41.415Z,99240.63
2022-11-22T07:21:13.211Z,99243.44
2022-11-22T07:23:42.879Z,99239.06
2022-11-22T07:26:10.076Z,99242.75
2022-11-22T07:28:37.408Z,99247.38
2022-11-22T07:31:06.692Z,99251.63
2022-11-22T07:33:33.650Z,99247.81
2022-11-22T07:36:08.796Z,99255.44
2022-11-22T07:38:35.898Z,99249.69
2022-11-22T07:41:03.051Z,99253.91
2022-11-22T07:43:29.692Z,99265.06
2022-11-22T07:46:03.977Z,99271.56
2022-11-22T07:48:30.579Z,99259.47
2022-11-22T07:50:57.210Z,99260.88
2022-11-22T07:53:24.217Z,99272.19
2022-11-22T07:55:50.714Z,99266.44
2022-11-22T07:58:17.195Z,99262.50
2022-11-22T08:00:43.653Z,99261.22
2022-11-22T08:03:12.241Z,99262.50
2022-11-22T08:05:42.148Z,99267.44
2022-11-22T08:08:08.591Z,99267.31
2022-11-22T08:10:35.158Z,99267.88
2022-11-22T08:13:01.710Z,99263.09
2022-11-22T08:15:28.375Z,99270.84
2022-11-22T08:17:54.974Z,99257.19
2022-11-22T08:20:21.574Z,99268.59
2022-11-22T08:22:48.176Z,99271.69
2022-11-22T08:25:14.651Z,99280.16
2022-11-22T08:27:42.757Z,99270.16
2022-11-22T08:30:11.107Z,99276.38
2022-11-22T08:32:37.965Z,99272.41
2022-11-22T08:35:05.099Z,99271.28
2022-11-22T08:37:31.784Z,99264.09
2022-11-22T08:39:58.369Z,99265.38
2022-11-22T08:42:24.919Z,99268.75
2022-11-22T08:44:51.483Z,99270.28
2022-11-22T08:47:18.000Z,99269.16
2022-11-22T08:49:44.495Z,99269.16
2022-11-22T08:52:11.311Z,99275.97
2022-11-22T08:54:38.361Z,99278.38
2022-11-22T08:57:05.159Z,99276.81
2022-11-22T08:59:32.190Z,99277.94
2022-11-22T09:01:59.182Z,99284.00
2022-11-22T09:04:25.747Z,99285.41
2022-11-22T09:09:38.774Z,99282.00
2022-11-22T09:12:05.812Z,99280.03
2022-11-22T09:14:32.387Z,99286.81
2022-11-22T09:16:58.948Z,99285.66
2022-11-22T09:19:25.548Z,99291.72
2022-11-22T09:21:52.018Z,99293.41
2022-11-22T09:24:18.577Z,99290.31
2022-11-22T09:26:45.064Z,99278.59
2022-11-22T09:29:11.606Z,99293.53
2022-11-22T09:31:38.590Z,99292.44
2022-11-22T09:34:05.167Z,99303.72
2022-11-22T09:36:31.704Z,99300.63
2022-11-22T09:38:58.417Z,99301.16
2022-11-22T09:41:45.049Z,99300.59
2022-11-22T09:44:32.092Z,99301.03
2022-11-22T09:47:17.934Z,99302.44
2022-11-22T09:50:02.757Z,99306.38
2022-11-22T09:52:48.476Z,99307.78
2022-11-22T09:55:28.989Z,99300.84
2022-11-22T09:58:36.797Z,99291.25
2022-11-22T10:01:42.362Z,99278.38
2022-11-22T10:04:19.305Z,99281.47
2022-11-22T10:06:51.355Z,99283.72
2022-11-22T10:09:54.812Z,99286.66
2022-11-22T10:12:31.948Z,99286.22
2022-11-22T10:15:19.891Z,99288.75
2022-11-22T10:17:49.396Z,99274.19
2022-11-22T10:20:17.759Z,99287.31
2022-11-22T10:22:58.489Z,99288.00
2022-11-22T10:25:41.912Z,99291.22
2022-11-22T10:28:23.244Z,99283.03
2022-11-22T10:31:04.801Z,99286.41
2022-11-22T10:33:44.350Z,99274.53
2022-11-22T10:36:46.986Z,99283.44
2022-11-22T10:39:18.113Z,99281.59
2022-11-22T10:41:57.709Z,99277.34
2022-11-22T10:44:30.104Z,99275.22
2022-11-22T10:47:17.624Z,99272.53
2022-11-22T10:50:00.753Z,99268.84
2022-11-22T10:52:55.107Z,99260.50
2022-11-22T10:55:42.925Z,99258.66
2022-11-22T10:58:21.257Z,99256.66
2022-11-22T11:00:56.031Z,99254.66
2022-11-22T11:03:38.811Z,99249.84
2022-11-22T11:06:26.260Z,99251.09
2022-11-22T11:11:55.968Z,99242.28
2022-11-22T11:15:00.588Z,99234.75
2022-11-22T11:17:31.877Z,99241.50
2022-11-22T11:20:03.459Z,99243.06
2022-11-22T11:23:06.570Z,99238.38
2022-11-22T11:25:34.935Z,99237.06
2022-11-22T11:28:08.518Z,99230.22
2022-11-22T11:30:46.056Z,99234.16
2022-11-22T11:33:31.234Z,99228.31
2022-11-22T11:36:04.290Z,99219.78
2022-11-22T11:38:48.812Z,99214.78
2022-11-22T11:41:32.927Z,99218.16
2022-11-22T11:44:05.437Z,99217.00
2022-11-22T11:46:40.908Z,99221.22
2022-11-22T11:49:17.925Z,99223.31
2022-11-22T11:51:59.501Z,99219.31
2022-11-22T11:54:30.607Z,99227.53
2022-11-22T11:56:59.562Z,99218.78
2022-11-22T11:59:43.953Z,99211.84
2022-11-22T12:02:15.810Z,99223.47
2022-11-22T12:04:50.370Z,99218.38
2022-11-22T12:07:35.225Z,99220.22
2022-11-22T12:10:23.117Z,99215.69
2022-11-22T12:12:53.441Z,99219.38
2022-11-22T12:15:26.846Z,99221.38
2022-11-22T12:18:01.251Z,99220.84
2022-11-22T12:20:59.156Z,99227.38
2022-11-22T12:23:51.064Z,99230.91
2022-11-22T12:26:18.410Z,99229.91
2022-11-22T12:28:45.124Z,99229.91
2022-11-22T12:31:15.488Z,99228.75
2022-11-22T12:33:47.393Z,99222.38
2022-11-22T12:36:33.224Z,99214.31
2022-11-22T12:39:02.027Z,99222.91
2022-11-22T12:41:31.148Z,99218.94
2022-11-22T12:44:06.887Z,99221.06
2022-11-22T12:46:40.139Z,99214.16
2022-11-22T12:49:18.863Z,99217.84
2022-11-22T12:52:07.066Z,99221.38
2022-11-22T12:54:40.422Z,99223.22
2022-11-22T12:57:23.455Z,99219.69
2022-11-22T13:00:02.686Z,99216.31
2022-11-22T13:02:34.766Z,99223.38
2022-11-22T13:05:23.932Z,99218.16
2022-11-22T13:08:13.485Z,99215.47
2022-11-22T13:10:46.513Z,99208.41
2022-11-22T13:13:21.603Z,99209.94
2022-11-22T13:15:51.266Z,99204.22
2022-11-22T13:18:18.029Z,99207.63
2022-11-22T13:20:54.760Z,99201.38
2022-11-22T13:23:41.560Z,99203.75
2022-11-22T13:26:18.620Z,99202.78
2022-11-22T13:28:45.778Z,99199.09
2022-11-22T13:31:12.286Z,99195.69
2022-11-22T13:33:52.706Z,99199.25
2022-11-22T13:36:25.007Z,99201.78
2022-11-22T13:38:54.445Z,99196.41
2022-11-22T13:41:23.118Z,99195.25
2022-11-22T13:43:55.993Z,99194.09
2022-11-22T13:46:50.240Z,99194.94
2022-11-22T13:49:32.530Z,99204.84
2022-11-22T13:52:12.433Z,99206.53
2022-11-22T13:54:59.000Z,99204.84
2022-11-22T13:57:34.674Z,99206.53
2022-11-22T14:00:12.965Z,99194.09
2022-11-22T14:03:19.664Z,99200.16
2022-11-22T14:05:50.345Z,99188.97
2022-11-22T14:08:37.224Z,99192.34
2022-11-22T14:11:39.083Z,99185.44
2022-11-22T14:14:21.364Z,99200.72
2022-11-22T14:17:08.061Z,99198.03
2022-11-22T14:19:53.552Z,99201.41
2022-11-22T14:22:38.025Z,99192.34
2022-11-22T14:25:31.329Z,99193.50
2022-11-22T14:28:04.297Z,99200.56
2022-11-22T14:30:53.585Z,99190.81
2022-11-22T14:33:25.561Z,99188.97
2022-11-22T14:36:06.995Z,99192.34
2022-11-22T14:38:35.694Z,99182.44
2022-11-22T14:41:39.760Z,99181.56
2022-11-22T14:44:18.247Z,99178.88
2022-11-22T14:47:04.507Z,99182.44
2022-11-22T14:49:46.768Z,99191.19
2022-11-22T14:52:25.831Z,99184.28
2022-11-22T14:54:56.971Z,99176.19
2022-11-22T14:57:26.390Z,99177.88
2022-11-22T15:00:14.634Z,99176.72
2022-11-22T15:02:59.226Z,99185.66
2022-11-22T15:09:11.059Z,99190.19
2022-11-22T15:09:11.524Z,99182.09
2022-11-22T15:11:39.228Z,99193.72
2022-11-22T15:14:17.890Z,99197.09
2022-11-22T15:59:43.705Z,99227.84
2022-11-22T16:02:15.861Z,99233.50
2022-11-22T16:06:04.680Z,99231.13
2022-11-22T16:07:48.085Z,99233.50
2022-11-22T16:10:40.147Z,99228.28
2022-11-22T16:13:18.599Z,99223.38
2022-11-22T16:16:02.936Z,99233.59
2022-11-22T16:18:29.458Z,99230.38
2022-11-22T16:20:59.678Z,99244.97
2022-11-22T16:23:28.467Z,99232.38
2022-11-22T16:25:58.502Z,99231.38
2022-11-22T16:28:31.107Z,99235.22
2022-11-22T16:31:06.229Z,99239.91
2022-11-22T16:33:33.048Z,99250.66
2022-11-22T16:36:01.476Z,99246.44
2022-11-22T16:38:28.679Z,99238.38
2022-11-22T16:40:57.517Z,99249.13
2022-11-22T16:43:25.776Z,99253.66
2022-11-22T16:45:52.700Z,99245.59
2022-11-22T16:48:32.176Z,99252.13
2022-11-22T16:51:03.339Z,99242.38
2022-11-22T16:53:37.948Z,99248.75
2022-11-22T16:56:04.573Z,99249.59
2022-11-22T16:58:31.291Z,99259.34
2022-11-22T17:00:59.504Z,99254.13
2022-11-22T17:03:29.643Z,99255.97
2022-11-22T17:05:56.090Z,99257.81
2022-11-22T17:08:22.555Z,99256.25
2022-11-22T17:10:50.807Z,99262.63
2022-11-22T17:13:26.591Z,99257.94
2022-11-22T17:15:55.036Z,99262.34
2022-11-22T17:18:21.888Z,99271.94
2022-11-22T17:20:48.964Z,99271.78
2022-11-22T17:23:31.234Z,99272.63
2022-11-22T17:25:57.768Z,99269.63
2022-11-22T17:28:24.391Z,99271.31
2022-11-22T17:30:51.492Z,99270.16
2022-11-22T17:33:18.008Z,99272.84
2022-11-22T17:35:44.712Z,99269.84
2022-11-22T17:38:12.136Z,99265.16
2022-11-22T17:40:38.963Z,99266.88
2022-11-22T17:43:05.559Z,99275.63
2022-11-22T17:45:32.210Z,99270.09
2022-11-22T17:47:58.666Z,99281.53
2022-11-22T17:50:25.238Z,99281.53
2022-11-22T17:52:52.785Z,99285.91
2022-11-22T17:55:19.419Z,99275.00
2022-11-22T17:57:45.963Z,99275.69
2022-11-22T18:00:14.157Z,99280.22
2022-11-22T18:02:40.841Z,99285.31
2022-11-22T18:05:09.691Z,99293.50
2022-11-22T18:07:38.513Z,99296.94
2022-11-22T18:10:09.831Z,99295.09
2022-11-22T18:12:58.684Z,99297.63
2022-11-22T18:15:26.882Z,99294.63
2022-11-22T18:17:53.463Z,99294.63
2022-11-22T18:20:19.972Z,99303.69
2022-11-22T18:22:46.420Z,99303.69
2022-11-22T18:25:13.047Z,99300.16
2022-11-22T18:27:42.329Z,99300.31
2022-11-22T18:30:09.837Z,99300.47
2022-11-22T18:32:36.379Z,99296.78
2022-11-22T18:35:02.961Z,99304.00
2022-11-22T18:37:29.523Z,99313.06
2022-11-22T18:39:56.206Z,99308.66
2022-11-22T18:42:23.455Z,99309.66
2022-11-22T18:44:49.949Z,99307.97
2022-11-22T18:47:17.012Z,99316.72
2022-11-22T18:49:43.549Z,99306.13
2022-11-22T18:52:13.327Z,99314.03
2022-11-22T18:54:43.037Z,99308.13
2022-11-22T18:57:09.493Z,99305.72
2022-11-22T18:59:36.006Z,99319.03
2022-11-22T19:02:02.504Z,99315.66
2022-11-22T19:04:30.779Z,99313.13
2022-11-22T19:06:57.641Z,99314.41
2022-11-22T19:09:24.139Z,99309.03
2022-11-22T19:11:55.528Z,99315.41
2022-11-22T19:14:24.785Z,99316.41
2022-11-22T19:16:51.273Z,99316.09
2022-11-22T19:19:17.842Z,99317.78
2022-11-22T19:21:44.333Z,99318.66
2022-11-22T19:24:10.919Z,99323.19
2022-11-22T19:26:37.542Z,99334.78
2022-11-22T19:29:04.919Z,99327.25
2022-11-22T19:31:31.813Z,99323.41
2022-11-22T19:33:59.485Z,99317.03
2022-11-22T19:36:32.594Z,99315.19
2022-11-22T19:39:00.863Z,99313.50
2022-11-22T19:41:27.437Z,99315.50
2022-11-22T19:43:58.704Z,99298.50
2022-11-22T19:46:26.000Z,99314.81
2022-11-22T19:48:54.221Z,99317.34
2022-11-22T19:51:21.776Z,99316.19
2022-11-22T19:53:49.252Z,99316.34
2022-11-22T19:56:18.277Z,99321.03
2022-11-22T19:58:50.866Z,99318.19
2022-11-22T20:01:18.255Z,99324.41
2022-11-22T20:03:48.004Z,99320.72
2022-11-22T20:06:14.550Z,99318.44
2022-11-22T20:08:41.284Z,99318.97
2022-11-22T20:11:13.158Z,99325.22
2022-11-22T20:13:42.720Z,99324.22
2022-11-22T20:16:16.105Z,99327.59
2022-11-22T20:18:43.091Z,99327.44
2022-11-22T20:21:11.088Z,99331.97
2022-11-22T20:23:38.540Z,99333.66
2022-11-22T20:26:11.083Z,99328.00
2022-11-22T20:28:39.069Z,99335.91
2022-11-22T20:31:13.693Z,99331.38
2022-11-22T20:33:42.359Z,99336.47
2022-11-22T20:36:12.587Z,99332.78
2022-11-22T20:38:41.148Z,99337.84
2022-11-22T20:41:09.729Z,99344.06
2022-11-22T20:43:36.803Z,99339.53
2022-11-22T20:46:06.367Z,99343.06
2022-11-22T20:48:34.165Z,99346.06
2022-11-22T20:51:02.434Z,99352.28
2022-11-22T20:53:29.545Z,99346.06
2022-11-22T20:55:56.231Z,99342.53
2022-11-22T20:58:25.948Z,99342.53
2022-11-22T21:00:53.578Z,99345.22
2022-11-22T21:03:20.332Z,99347.91
2022-11-22T21:05:50.300Z,99345.06
2022-11-22T21:08:16.885Z,99354.97
2022-11-22T21:10:43.661Z,99352.13
2022-11-22T21:13:10.259Z,99352.97
2022-11-22T21:15:36.730Z,99357.34
2022-11-22T21:18:24.054Z,99357.34
2022-11-22T21:20:51.151Z,99357.06
2022-11-22T21:23:18.000Z,99352.34
2022-11-22T21:25:44.472Z,99356.75
2022-11-22T21:28:11.095Z,99369.88
2022-11-22T21:30:37.536Z,99361.81
2022-11-22T21:33:04.112Z,99366.34
2022-11-22T21:35:30.950Z,99365.50
2022-11-22T21:37:57.524Z,99368.34
2022-11-22T21:40:24.017Z,99369.34
2022-11-22T21:42:50.511Z,99362.28
2022-11-22T21:45:17.036Z,99376.44
2022-11-22T21:47:43.495Z,99369.34
2022-11-22T21:50:11.755Z,99378.28
2022-11-22T21:52:38.519Z,99378.97
2022-11-22T21:55:05.447Z,99379.97
2022-11-22T21:57:33.259Z,99382.66
2022-11-22T21:59:59.748Z,99379.13
2022-11-22T22:02:29.439Z,99381.66
2022-11-22T22:04:55.972Z,99383.50
2022-11-22T22:07:50.719Z,99391.56
2022-11-22T22:10:09.322Z,99387.88
2022-11-22T22:12:35.767Z,99384.34
2022-11-22T22:15:02.976Z,99386.19
2022-11-22T22:17:29.452Z,99383.34
2022-11-22T22:19:55.957Z,99386.72
2022-11-22T22:22:22.542Z,99383.03
2022-11-22T22:24:49.017Z,99381.03
2022-11-22T22:27:15.540Z,99388.25
2022-11-22T22:29:41.995Z,99382.72
2022-11-22T22:32:10.735Z,99392.50
2022-11-22T22:34:37.427Z,99387.78
2022-11-22T22:37:03.883Z,99390.34
2022-11-22T22:39:30.954Z,99393.88
2022-11-22T22:41:57.550Z,99388.50
2022-11-22T22:44:24.102Z,99401.94
2022-11-22T22:46:50.602Z,99396.56
2022-11-22T22:49:17.116Z,99394.03
2022-11-22T22:51:43.561Z,99402.94
2022-11-22T22:54:10.304Z,99396.72
2022-11-22T22:56:36.931Z,99402.09
2022-11-22T22:59:05.148Z,99400.25
2022-11-22T23:01:32.081Z,99410.88
2022-11-22T23:04:01.409Z,99410.72
2022-11-22T23:06:33.395Z,99413.41
2022-11-22T23:09:00.213Z,99415.94
2022-11-22T23:11:48.344Z,99415.94
2022-11-22T23:14:18.768Z,99423.16
2022-11-22T23:16:45.385Z,99423.00
2022-11-22T23:19:12.482Z,99430.25
2022-11-22T23:21:39.413Z,99437.31
2022-11-22T23:24:06.996Z,99429.09
2022-11-22T23:26:33.932Z,99434.47
2022-11-22T23:29:00.663Z,99448.78
2022-11-22T23:31:27.468Z,99457.69
2022-11-22T23:33:53.979Z,99444.94
2022-11-22T23:36:21.793Z,99451.00
2022-11-22T23:38:48.572Z,99444.63
2022-11-22T23:41:19.851Z,99457.09
2022-11-22T23:43:47.768Z,99458.63
2022-11-22T23:46:17.915Z,99450.53
2022-11-22T23:48:45.846Z,99454.94
2022-11-22T23:51:13.326Z,99462.00
2022-11-22T23:53:39.844Z,99469.94
2022-11-22T23:56:08.103Z,99452.94
2022-11-22T23:58:35.111Z,99471.63
